sensor_id;sensor_type;location;lat;lon;timestamp;P1;durP1;ratioP1;P2;durP2;ratioP2
1082;SDS011;530;51.448;7.238;2023-02-12T00:00:34;62.20;;;37.50;;
1082;SDS011;530;51.448;7.238;2023-02-12T00:03:00;61.83;;;36.43;;
1082;SDS011;530;51.448;7.238;2023-02-12T00:05:26;58.57;;;34.00;;
1082;SDS011;530;51.448;7.238;2023-02-12T00:07:52;58.90;;;34.40;;
1082;SDS011;530;51.448;7.238;2023-02-12T00:10:18;60.73;;;35.13;;
1082;SDS011;530;51.448;7.238;2023-02-12T00:12:43;59.20;;;33.30;;
1082;SDS011;530;51.448;7.238;2023-02-12T00:15:09;55.13;;;33.83;;
1082;SDS011;530;51.448;7.238;2023-02-12T00:17:35;65.00;;;36.03;;
1082;SDS011;530;51.448;7.238;2023-02-12T00:20:01;53.47;;;32.10;;
1082;SDS011;530;51.448;7.238;2023-02-12T00:22:26;57.47;;;33.60;;
1082;SDS011;530;51.448;7.238;2023-02-12T00:24:53;52.83;;;32.70;;
1082;SDS011;530;51.448;7.238;2023-02-12T00:27:20;59.17;;;34.30;;
1082;SDS011;530;51.448;7.238;2023-02-12T00:29:46;61.97;;;36.80;;
1082;SDS011;530;51.448;7.238;2023-02-12T00:32:12;57.10;;;35.70;;
1082;SDS011;530;51.448;7.238;2023-02-12T00:34:38;68.80;;;38.13;;
1082;SDS011;530;51.448;7.238;2023-02-12T00:37:04;63.10;;;36.17;;
1082;SDS011;530;51.448;7.238;2023-02-12T00:39:30;63.93;;;36.03;;
1082;SDS011;530;51.448;7.238;2023-02-12T00:41:56;60.47;;;36.17;;
1082;SDS011;530;51.448;7.238;2023-02-12T00:44:21;61.63;;;36.97;;
1082;SDS011;530;51.448;7.238;2023-02-12T00:46:47;64.73;;;36.30;;
1082;SDS011;530;51.448;7.238;2023-02-12T00:49:13;68.07;;;36.90;;
1082;SDS011;530;51.448;7.238;2023-02-12T00:51:39;61.73;;;37.50;;
1082;SDS011;530;51.448;7.238;2023-02-12T00:54:05;60.20;;;36.47;;
1082;SDS011;530;51.448;7.238;2023-02-12T00:56:31;60.17;;;36.57;;
1082;SDS011;530;51.448;7.238;2023-02-12T00:58:56;68.57;;;38.83;;
1082;SDS011;530;51.448;7.238;2023-02-12T01:01:22;73.17;;;37.27;;
1082;SDS011;530;51.448;7.238;2023-02-12T01:03:48;58.27;;;33.80;;
1082;SDS011;530;51.448;7.238;2023-02-12T01:06:13;59.87;;;35.67;;
1082;SDS011;530;51.448;7.238;2023-02-12T01:08:39;61.87;;;35.23;;
1082;SDS011;530;51.448;7.238;2023-02-12T01:11:05;61.67;;;36.03;;
1082;SDS011;530;51.448;7.238;2023-02-12T01:13:31;64.00;;;36.07;;
1082;SDS011;530;51.448;7.238;2023-02-12T01:18:30;54.33;;;33.90;;
1082;SDS011;530;51.448;7.238;2023-02-12T01:20:56;51.67;;;31.80;;
1082;SDS011;530;51.448;7.238;2023-02-12T01:23:23;65.00;;;36.63;;
1082;SDS011;530;51.448;7.238;2023-02-12T01:25:48;56.77;;;31.20;;
1082;SDS011;530;51.448;7.238;2023-02-12T01:28:14;54.87;;;33.90;;
1082;SDS011;530;51.448;7.238;2023-02-12T01:30:40;58.17;;;33.70;;
1082;SDS011;530;51.448;7.238;2023-02-12T01:33:05;49.80;;;30.63;;
1082;SDS011;530;51.448;7.238;2023-02-12T01:35:31;48.80;;;30.93;;
1082;SDS011;530;51.448;7.238;2023-02-12T01:37:56;56.80;;;32.37;;
1082;SDS011;530;51.448;7.238;2023-02-12T01:40:23;46.43;;;30.47;;
1082;SDS011;530;51.448;7.238;2023-02-12T01:42:48;55.63;;;33.70;;
1082;SDS011;530;51.448;7.238;2023-02-12T01:47:43;54.43;;;31.23;;
1082;SDS011;530;51.448;7.238;2023-02-12T01:50:16;56.00;;;32.40;;
1082;SDS011;530;51.448;7.238;2023-02-12T01:52:48;52.50;;;31.20;;
1082;SDS011;530;51.448;7.238;2023-02-12T01:55:17;47.67;;;29.70;;
1082;SDS011;530;51.448;7.238;2023-02-12T01:57:44;51.03;;;30.60;;
1082;SDS011;530;51.448;7.238;2023-02-12T02:00:13;54.47;;;33.00;;
1082;SDS011;530;51.448;7.238;2023-02-12T02:02:48;54.90;;;33.40;;
1082;SDS011;530;51.448;7.238;2023-02-12T02:08:26;53.87;;;32.37;;
1082;SDS011;530;51.448;7.238;2023-02-12T02:10:53;49.90;;;30.03;;
1082;SDS011;530;51.448;7.238;2023-02-12T02:13:18;55.50;;;33.93;;
1082;SDS011;530;51.448;7.238;2023-02-12T02:16:14;50.30;;;32.13;;
1082;SDS011;530;51.448;7.238;2023-02-12T02:18:57;50.50;;;32.23;;
1082;SDS011;530;51.448;7.238;2023-02-12T02:24:25;56.37;;;31.93;;
1082;SDS011;530;51.448;7.238;2023-02-12T02:32:37;57.83;;;31.90;;
1082;SDS011;530;51.448;7.238;2023-02-12T02:35:10;63.30;;;32.90;;
1082;SDS011;530;51.448;7.238;2023-02-12T02:40:24;48.60;;;30.60;;
1082;SDS011;530;51.448;7.238;2023-02-12T02:42:58;59.50;;;31.33;;
1082;SDS011;530;51.448;7.238;2023-02-12T02:45:30;56.27;;;31.90;;
1082;SDS011;530;51.448;7.238;2023-02-12T02:48:15;52.20;;;31.20;;
1082;SDS011;530;51.448;7.238;2023-02-12T02:50:46;59.20;;;33.70;;
1082;SDS011;530;51.448;7.238;2023-02-12T02:53:44;55.33;;;32.60;;
1082;SDS011;530;51.448;7.238;2023-02-12T02:56:15;54.83;;;33.97;;
1082;SDS011;530;51.448;7.238;2023-02-12T02:58:48;52.47;;;32.27;;
1082;SDS011;530;51.448;7.238;2023-02-12T03:01:22;52.30;;;31.17;;
1082;SDS011;530;51.448;7.238;2023-02-12T03:04:06;55.87;;;32.37;;
1082;SDS011;530;51.448;7.238;2023-02-12T03:06:40;58.77;;;33.27;;
1082;SDS011;530;51.448;7.238;2023-02-12T03:09:22;51.20;;;31.10;;
1082;SDS011;530;51.448;7.238;2023-02-12T03:12:28;52.60;;;31.73;;
1082;SDS011;530;51.448;7.238;2023-02-12T03:15:00;58.80;;;34.90;;
1082;SDS011;530;51.448;7.238;2023-02-12T03:17:40;48.47;;;31.07;;
1082;SDS011;530;51.448;7.238;2023-02-12T03:22:45;55.60;;;33.87;;
1082;SDS011;530;51.448;7.238;2023-02-12T03:25:19;52.10;;;30.07;;
1082;SDS011;530;51.448;7.238;2023-02-12T03:28:12;56.83;;;33.73;;
1082;SDS011;530;51.448;7.238;2023-02-12T03:38:51;62.87;;;31.97;;
1082;SDS011;530;51.448;7.238;2023-02-12T03:41:20;55.50;;;32.93;;
1082;SDS011;530;51.448;7.238;2023-02-12T03:43:53;53.77;;;31.30;;
1082;SDS011;530;51.448;7.238;2023-02-12T03:46:34;55.77;;;33.90;;
1082;SDS011;530;51.448;7.238;2023-02-12T03:49:13;50.87;;;30.70;;
1082;SDS011;530;51.448;7.238;2023-02-12T03:51:47;55.53;;;32.13;;
1082;SDS011;530;51.448;7.238;2023-02-12T03:54:15;57.97;;;31.63;;
1082;SDS011;530;51.448;7.238;2023-02-12T03:57:03;54.80;;;30.67;;
1082;SDS011;530;51.448;7.238;2023-02-12T03:59:33;51.73;;;30.90;;
1082;SDS011;530;51.448;7.238;2023-02-12T04:02:01;56.23;;;31.73;;
1082;SDS011;530;51.448;7.238;2023-02-12T04:04:28;50.67;;;31.03;;
1082;SDS011;530;51.448;7.238;2023-02-12T04:06:54;53.33;;;31.97;;
1082;SDS011;530;51.448;7.238;2023-02-12T04:09:20;52.30;;;31.60;;
1082;SDS011;530;51.448;7.238;2023-02-12T04:14:59;49.40;;;29.93;;
1082;SDS011;530;51.448;7.238;2023-02-12T04:23:24;50.23;;;30.00;;
1082;SDS011;530;51.448;7.238;2023-02-12T04:37:09;46.10;;;28.80;;
1082;SDS011;530;51.448;7.238;2023-02-12T04:39:41;46.93;;;29.27;;
1082;SDS011;530;51.448;7.238;2023-02-12T04:42:09;47.83;;;28.90;;
1082;SDS011;530;51.448;7.238;2023-02-12T04:44:39;58.90;;;32.80;;
1082;SDS011;530;51.448;7.238;2023-02-12T04:47:06;50.73;;;28.90;;
1082;SDS011;530;51.448;7.238;2023-02-12T04:49:34;50.00;;;28.50;;
1082;SDS011;530;51.448;7.238;2023-02-12T04:51:59;49.63;;;30.87;;
1082;SDS011;530;51.448;7.238;2023-02-12T04:54:25;46.07;;;28.00;;
1082;SDS011;530;51.448;7.238;2023-02-12T04:56:51;48.33;;;28.83;;
1082;SDS011;530;51.448;7.238;2023-02-12T04:59:17;54.50;;;30.53;;
1082;SDS011;530;51.448;7.238;2023-02-12T05:01:43;50.20;;;29.60;;
1082;SDS011;530;51.448;7.238;2023-02-12T05:04:10;47.37;;;29.13;;
1082;SDS011;530;51.448;7.238;2023-02-12T05:06:38;46.93;;;29.80;;
1082;SDS011;530;51.448;7.238;2023-02-12T05:09:05;48.10;;;29.63;;
1082;SDS011;530;51.448;7.238;2023-02-12T05:11:32;52.00;;;30.03;;
1082;SDS011;530;51.448;7.238;2023-02-12T05:13:58;42.60;;;28.33;;
1082;SDS011;530;51.448;7.238;2023-02-12T05:16:24;53.10;;;29.60;;
1082;SDS011;530;51.448;7.238;2023-02-12T05:18:50;48.83;;;30.83;;
1082;SDS011;530;51.448;7.238;2023-02-12T05:21:15;51.40;;;31.60;;
1082;SDS011;530;51.448;7.238;2023-02-12T05:23:42;49.83;;;30.93;;
1082;SDS011;530;51.448;7.238;2023-02-12T05:26:12;52.77;;;29.57;;
1082;SDS011;530;51.448;7.238;2023-02-12T05:28:42;46.30;;;30.07;;
1082;SDS011;530;51.448;7.238;2023-02-12T05:31:08;49.73;;;29.00;;
1082;SDS011;530;51.448;7.238;2023-02-12T05:33:37;47.83;;;30.20;;
1082;SDS011;530;51.448;7.238;2023-02-12T05:36:06;46.23;;;29.57;;
1082;SDS011;530;51.448;7.238;2023-02-12T05:38:33;48.43;;;31.17;;
1082;SDS011;530;51.448;7.238;2023-02-12T05:41:00;57.17;;;29.23;;
1082;SDS011;530;51.448;7.238;2023-02-12T05:43:30;53.87;;;30.30;;
1082;SDS011;530;51.448;7.238;2023-02-12T05:45:59;50.60;;;30.00;;
1082;SDS011;530;51.448;7.238;2023-02-12T05:48:29;47.10;;;28.27;;
1082;SDS011;530;51.448;7.238;2023-02-12T05:51:02;47.97;;;30.70;;
1082;SDS011;530;51.448;7.238;2023-02-12T05:53:36;42.40;;;27.90;;
1082;SDS011;530;51.448;7.238;2023-02-12T05:58:39;49.83;;;29.47;;
1082;SDS011;530;51.448;7.238;2023-02-12T06:01:10;51.53;;;31.10;;
1082;SDS011;530;51.448;7.238;2023-02-12T06:03:41;50.23;;;31.00;;
1082;SDS011;530;51.448;7.238;2023-02-12T06:06:07;51.23;;;30.30;;
1082;SDS011;530;51.448;7.238;2023-02-12T06:08:33;50.97;;;31.17;;
1082;SDS011;530;51.448;7.238;2023-02-12T06:11:00;49.93;;;30.50;;
1082;SDS011;530;51.448;7.238;2023-02-12T06:13:28;48.83;;;30.53;;
1082;SDS011;530;51.448;7.238;2023-02-12T06:15:55;47.00;;;30.53;;
1082;SDS011;530;51.448;7.238;2023-02-12T06:18:20;48.80;;;30.73;;
1082;SDS011;530;51.448;7.238;2023-02-12T06:20:46;52.00;;;30.27;;
1082;SDS011;530;51.448;7.238;2023-02-12T06:23:12;46.57;;;29.33;;
1082;SDS011;530;51.448;7.238;2023-02-12T06:25:38;51.53;;;28.20;;
1082;SDS011;530;51.448;7.238;2023-02-12T06:28:04;50.37;;;28.70;;
1082;SDS011;530;51.448;7.238;2023-02-12T06:30:29;46.77;;;28.13;;
1082;SDS011;530;51.448;7.238;2023-02-12T06:32:57;45.30;;;27.83;;
1082;SDS011;530;51.448;7.238;2023-02-12T06:35:23;44.10;;;27.37;;
1082;SDS011;530;51.448;7.238;2023-02-12T06:37:48;47.67;;;29.97;;
1082;SDS011;530;51.448;7.238;2023-02-12T06:40:14;50.03;;;29.63;;
1082;SDS011;530;51.448;7.238;2023-02-12T06:42:40;43.40;;;27.37;;
1082;SDS011;530;51.448;7.238;2023-02-12T06:45:06;47.50;;;29.17;;
1082;SDS011;530;51.448;7.238;2023-02-12T06:47:32;47.77;;;29.87;;
1082;SDS011;530;51.448;7.238;2023-02-12T06:49:57;48.33;;;29.13;;
1082;SDS011;530;51.448;7.238;2023-02-12T06:52:23;49.17;;;30.90;;
1082;SDS011;530;51.448;7.238;2023-02-12T06:54:49;47.10;;;29.13;;
1082;SDS011;530;51.448;7.238;2023-02-12T06:57:14;50.77;;;27.90;;
1082;SDS011;530;51.448;7.238;2023-02-12T06:59:40;47.43;;;29.77;;
1082;SDS011;530;51.448;7.238;2023-02-12T07:02:05;43.80;;;28.70;;
1082;SDS011;530;51.448;7.238;2023-02-12T07:04:31;48.53;;;30.50;;
1082;SDS011;530;51.448;7.238;2023-02-12T07:06:57;49.07;;;30.60;;
1082;SDS011;530;51.448;7.238;2023-02-12T07:09:22;45.57;;;29.43;;
1082;SDS011;530;51.448;7.238;2023-02-12T07:11:48;50.00;;;31.47;;
1082;SDS011;530;51.448;7.238;2023-02-12T07:14:14;53.70;;;33.20;;
1082;SDS011;530;51.448;7.238;2023-02-12T07:16:41;55.17;;;31.80;;
1082;SDS011;530;51.448;7.238;2023-02-12T07:19:08;50.53;;;30.13;;
1082;SDS011;530;51.448;7.238;2023-02-12T07:21:36;47.90;;;29.10;;
1082;SDS011;530;51.448;7.238;2023-02-12T07:24:01;51.63;;;30.93;;
1082;SDS011;530;51.448;7.238;2023-02-12T07:26:27;49.53;;;31.53;;
1082;SDS011;530;51.448;7.238;2023-02-12T07:28:53;43.10;;;28.63;;
1082;SDS011;530;51.448;7.238;2023-02-12T07:31:21;49.50;;;30.30;;
1082;SDS011;530;51.448;7.238;2023-02-12T07:33:48;50.20;;;29.87;;
1082;SDS011;530;51.448;7.238;2023-02-12T07:36:18;51.03;;;29.63;;
1082;SDS011;530;51.448;7.238;2023-02-12T07:38:44;52.00;;;31.30;;
1082;SDS011;530;51.448;7.238;2023-02-12T07:41:14;55.90;;;30.73;;
1082;SDS011;530;51.448;7.238;2023-02-12T07:43:45;50.30;;;32.23;;
1082;SDS011;530;51.448;7.238;2023-02-12T07:46:14;51.00;;;31.60;;
1082;SDS011;530;51.448;7.238;2023-02-12T07:48:44;50.73;;;30.77;;
1082;SDS011;530;51.448;7.238;2023-02-12T07:51:12;49.33;;;30.33;;
1082;SDS011;530;51.448;7.238;2023-02-12T07:53:39;52.03;;;31.20;;
1082;SDS011;530;51.448;7.238;2023-02-12T07:56:06;50.60;;;31.03;;
1082;SDS011;530;51.448;7.238;2023-02-12T07:58:40;51.90;;;29.50;;
1082;SDS011;530;51.448;7.238;2023-02-12T08:01:12;51.23;;;30.70;;
1082;SDS011;530;51.448;7.238;2023-02-12T08:03:42;49.13;;;28.50;;
1082;SDS011;530;51.448;7.238;2023-02-12T08:06:13;48.70;;;30.90;;
1082;SDS011;530;51.448;7.238;2023-02-12T08:08:47;53.13;;;31.70;;
1082;SDS011;530;51.448;7.238;2023-02-12T08:11:15;53.37;;;31.67;;
1082;SDS011;530;51.448;7.238;2023-02-12T08:13:42;51.00;;;30.43;;
1082;SDS011;530;51.448;7.238;2023-02-12T08:16:09;50.50;;;30.90;;
1082;SDS011;530;51.448;7.238;2023-02-12T08:18:36;49.60;;;31.87;;
1082;SDS011;530;51.448;7.238;2023-02-12T08:23:28;50.97;;;29.90;;
1082;SDS011;530;51.448;7.238;2023-02-12T08:25:54;46.10;;;29.23;;
1082;SDS011;530;51.448;7.238;2023-02-12T08:28:19;50.90;;;29.87;;
1082;SDS011;530;51.448;7.238;2023-02-12T08:30:47;50.23;;;30.30;;
1082;SDS011;530;51.448;7.238;2023-02-12T08:33:12;51.00;;;29.60;;
1082;SDS011;530;51.448;7.238;2023-02-12T08:35:38;48.43;;;30.20;;
1082;SDS011;530;51.448;7.238;2023-02-12T08:38:04;53.23;;;29.60;;
1082;SDS011;530;51.448;7.238;2023-02-12T08:40:29;45.80;;;28.67;;
1082;SDS011;530;51.448;7.238;2023-02-12T08:42:55;47.53;;;28.97;;
1082;SDS011;530;51.448;7.238;2023-02-12T08:45:20;46.73;;;27.10;;
1082;SDS011;530;51.448;7.238;2023-02-12T08:47:46;47.23;;;29.00;;
1082;SDS011;530;51.448;7.238;2023-02-12T08:50:12;45.70;;;27.93;;
1082;SDS011;530;51.448;7.238;2023-02-12T08:52:38;44.70;;;26.97;;
1082;SDS011;530;51.448;7.238;2023-02-12T08:55:03;47.40;;;27.43;;
1082;SDS011;530;51.448;7.238;2023-02-12T08:57:29;43.67;;;28.00;;
1082;SDS011;530;51.448;7.238;2023-02-12T08:59:55;47.03;;;27.80;;
1082;SDS011;530;51.448;7.238;2023-02-12T09:02:20;47.80;;;28.17;;
1082;SDS011;530;51.448;7.238;2023-02-12T09:04:46;46.67;;;28.70;;
1082;SDS011;530;51.448;7.238;2023-02-12T09:07:12;43.67;;;25.90;;
1082;SDS011;530;51.448;7.238;2023-02-12T09:09:37;47.60;;;28.43;;
1082;SDS011;530;51.448;7.238;2023-02-12T09:12:03;45.30;;;27.53;;
1082;SDS011;530;51.448;7.238;2023-02-12T09:14:29;44.17;;;27.50;;
1082;SDS011;530;51.448;7.238;2023-02-12T09:16:55;42.57;;;26.93;;
1082;SDS011;530;51.448;7.238;2023-02-12T09:19:22;40.03;;;25.40;;
1082;SDS011;530;51.448;7.238;2023-02-12T09:21:49;40.70;;;25.20;;
1082;SDS011;530;51.448;7.238;2023-02-12T09:24:18;38.53;;;24.87;;
1082;SDS011;530;51.448;7.238;2023-02-12T09:26:44;39.53;;;26.00;;
1082;SDS011;530;51.448;7.238;2023-02-12T09:29:10;42.10;;;26.60;;
1082;SDS011;530;51.448;7.238;2023-02-12T09:31:36;38.70;;;24.70;;
1082;SDS011;530;51.448;7.238;2023-02-12T09:34:02;43.70;;;27.27;;
1082;SDS011;530;51.448;7.238;2023-02-12T09:36:29;38.17;;;24.97;;
1082;SDS011;530;51.448;7.238;2023-02-12T09:38:56;37.00;;;24.47;;
1082;SDS011;530;51.448;7.238;2023-02-12T09:52:36;44.27;;;25.70;;
1082;SDS011;530;51.448;7.238;2023-02-12T09:55:02;43.20;;;25.80;;
1082;SDS011;530;51.448;7.238;2023-02-12T09:57:32;44.03;;;26.50;;
1082;SDS011;530;51.448;7.238;2023-02-12T10:02:36;38.43;;;25.07;;
1082;SDS011;530;51.448;7.238;2023-02-12T10:05:04;44.67;;;26.67;;
1082;SDS011;530;51.448;7.238;2023-02-12T10:13:03;46.70;;;28.00;;
1082;SDS011;530;51.448;7.238;2023-02-12T10:21:22;35.67;;;25.03;;
1082;SDS011;530;51.448;7.238;2023-02-12T10:24:15;38.77;;;24.73;;
1082;SDS011;530;51.448;7.238;2023-02-12T10:27:06;44.17;;;26.57;;
1082;SDS011;530;51.448;7.238;2023-02-12T10:29:38;38.53;;;24.70;;
1082;SDS011;530;51.448;7.238;2023-02-12T10:32:12;42.60;;;25.47;;
1082;SDS011;530;51.448;7.238;2023-02-12T10:34:50;41.50;;;23.93;;
1082;SDS011;530;51.448;7.238;2023-02-12T10:42:51;38.97;;;24.43;;
1082;SDS011;530;51.448;7.238;2023-02-12T10:45:19;39.77;;;25.20;;
1082;SDS011;530;51.448;7.238;2023-02-12T10:47:49;36.20;;;24.20;;
1082;SDS011;530;51.448;7.238;2023-02-12T10:50:20;35.33;;;23.20;;
1082;SDS011;530;51.448;7.238;2023-02-12T10:53:11;30.73;;;21.93;;
1082;SDS011;530;51.448;7.238;2023-02-12T10:55:44;35.37;;;22.97;;
1082;SDS011;530;51.448;7.238;2023-02-12T10:58:20;32.90;;;23.70;;
1082;SDS011;530;51.448;7.238;2023-02-12T11:00:55;38.07;;;24.53;;
1082;SDS011;530;51.448;7.238;2023-02-12T11:03:23;35.80;;;23.03;;
1082;SDS011;530;51.448;7.238;2023-02-12T11:05:53;36.37;;;24.03;;
1082;SDS011;530;51.448;7.238;2023-02-12T11:11:30;37.80;;;23.50;;
1082;SDS011;530;51.448;7.238;2023-02-12T11:16:55;33.97;;;22.27;;
1082;SDS011;530;51.448;7.238;2023-02-12T11:22:03;37.50;;;24.83;;
1082;SDS011;530;51.448;7.238;2023-02-12T11:24:36;35.73;;;23.83;;
1082;SDS011;530;51.448;7.238;2023-02-12T11:29:39;34.80;;;23.80;;
1082;SDS011;530;51.448;7.238;2023-02-12T11:32:07;37.23;;;22.30;;
1082;SDS011;530;51.448;7.238;2023-02-12T11:34:36;38.47;;;23.57;;
1082;SDS011;530;51.448;7.238;2023-02-12T11:37:02;35.87;;;23.80;;
1082;SDS011;530;51.448;7.238;2023-02-12T11:39:32;35.70;;;23.00;;
1082;SDS011;530;51.448;7.238;2023-02-12T11:42:20;39.30;;;23.67;;
1082;SDS011;530;51.448;7.238;2023-02-12T11:44:52;35.47;;;22.30;;
1082;SDS011;530;51.448;7.238;2023-02-12T11:47:20;32.13;;;23.50;;
1082;SDS011;530;51.448;7.238;2023-02-12T11:52:46;32.97;;;21.30;;
1082;SDS011;530;51.448;7.238;2023-02-12T11:55:25;39.40;;;23.03;;
1082;SDS011;530;51.448;7.238;2023-02-12T11:58:03;36.40;;;21.77;;
1082;SDS011;530;51.448;7.238;2023-02-12T12:00:47;34.77;;;21.23;;
1082;SDS011;530;51.448;7.238;2023-02-12T12:03:30;32.10;;;20.43;;
1082;SDS011;530;51.448;7.238;2023-02-12T12:22:27;33.13;;;21.33;;
1082;SDS011;530;51.448;7.238;2023-02-12T12:38:52;36.30;;;23.13;;
1082;SDS011;530;51.448;7.238;2023-02-12T12:41:29;34.60;;;23.07;;
1082;SDS011;530;51.448;7.238;2023-02-12T12:47:09;33.00;;;21.13;;
1082;SDS011;530;51.448;7.238;2023-02-12T12:58:02;34.70;;;23.47;;
1082;SDS011;530;51.448;7.238;2023-02-12T13:01:00;38.67;;;24.10;;
1082;SDS011;530;51.448;7.238;2023-02-12T13:17:28;34.30;;;22.07;;
1082;SDS011;530;51.448;7.238;2023-02-12T13:25:37;35.80;;;23.03;;
1082;SDS011;530;51.448;7.238;2023-02-12T13:28:04;36.23;;;21.33;;
1082;SDS011;530;51.448;7.238;2023-02-12T13:30:42;37.47;;;23.47;;
1082;SDS011;530;51.448;7.238;2023-02-12T13:33:20;35.17;;;23.03;;
1082;SDS011;530;51.448;7.238;2023-02-12T13:35:51;36.03;;;23.70;;
1082;SDS011;530;51.448;7.238;2023-02-12T13:38:21;36.73;;;22.60;;
1082;SDS011;530;51.448;7.238;2023-02-12T13:40:51;35.17;;;23.50;;
1082;SDS011;530;51.448;7.238;2023-02-12T13:51:39;36.30;;;22.47;;
1082;SDS011;530;51.448;7.238;2023-02-12T13:56:56;33.93;;;21.70;;
1082;SDS011;530;51.448;7.238;2023-02-12T14:02:02;32.40;;;20.37;;
1082;SDS011;530;51.448;7.238;2023-02-12T14:04:54;30.27;;;19.77;;
1082;SDS011;530;51.448;7.238;2023-02-12T14:07:23;32.33;;;20.00;;
1082;SDS011;530;51.448;7.238;2023-02-12T14:10:18;30.17;;;18.50;;
1082;SDS011;530;51.448;7.238;2023-02-12T14:12:44;31.57;;;19.47;;
1082;SDS011;530;51.448;7.238;2023-02-12T14:17:53;29.17;;;19.47;;
1082;SDS011;530;51.448;7.238;2023-02-12T14:20:39;28.33;;;19.73;;
1082;SDS011;530;51.448;7.238;2023-02-12T14:33:43;31.97;;;19.73;;
1082;SDS011;530;51.448;7.238;2023-02-12T14:36:14;31.00;;;19.27;;
1082;SDS011;530;51.448;7.238;2023-02-12T14:38:58;31.17;;;19.33;;
1082;SDS011;530;51.448;7.238;2023-02-12T14:41:36;28.83;;;19.53;;
1082;SDS011;530;51.448;7.238;2023-02-12T14:44:50;28.70;;;18.83;;
1082;SDS011;530;51.448;7.238;2023-02-12T14:46:53;31.13;;;18.73;;
1082;SDS011;530;51.448;7.238;2023-02-12T14:54:45;33.17;;;20.30;;
1082;SDS011;530;51.448;7.238;2023-02-12T14:59:55;32.80;;;21.77;;
1082;SDS011;530;51.448;7.238;2023-02-12T15:02:25;30.43;;;19.67;;
1082;SDS011;530;51.448;7.238;2023-02-12T15:04:57;28.60;;;18.80;;
1082;SDS011;530;51.448;7.238;2023-02-12T15:07:42;27.93;;;17.70;;
1082;SDS011;530;51.448;7.238;2023-02-12T15:10:14;27.50;;;17.83;;
1082;SDS011;530;51.448;7.238;2023-02-12T15:12:46;30.43;;;19.27;;
1082;SDS011;530;51.448;7.238;2023-02-12T15:15:30;28.03;;;19.10;;
1082;SDS011;530;51.448;7.238;2023-02-12T15:18:11;25.20;;;18.40;;
1082;SDS011;530;51.448;7.238;2023-02-12T15:21:05;26.40;;;18.27;;
1082;SDS011;530;51.448;7.238;2023-02-12T15:23:38;25.50;;;18.37;;
1082;SDS011;530;51.448;7.238;2023-02-12T15:26:08;28.27;;;18.70;;
1082;SDS011;530;51.448;7.238;2023-02-12T15:28:41;29.67;;;18.60;;
1082;SDS011;530;51.448;7.238;2023-02-12T15:31:13;28.27;;;18.97;;
1082;SDS011;530;51.448;7.238;2023-02-12T15:33:43;27.97;;;19.80;;
1082;SDS011;530;51.448;7.238;2023-02-12T15:36:16;30.10;;;19.33;;
1082;SDS011;530;51.448;7.238;2023-02-12T15:38:47;26.00;;;19.37;;
1082;SDS011;530;51.448;7.238;2023-02-12T15:44:19;26.40;;;17.90;;
1082;SDS011;530;51.448;7.238;2023-02-12T15:49:48;31.67;;;19.63;;
1082;SDS011;530;51.448;7.238;2023-02-12T15:54:40;30.70;;;18.67;;
1082;SDS011;530;51.448;7.238;2023-02-12T15:57:11;27.83;;;19.10;;
1082;SDS011;530;51.448;7.238;2023-02-12T15:59:42;25.97;;;17.50;;
1082;SDS011;530;51.448;7.238;2023-02-12T16:02:34;30.17;;;19.40;;
1082;SDS011;530;51.448;7.238;2023-02-12T16:04:59;28.07;;;18.93;;
1082;SDS011;530;51.448;7.238;2023-02-12T16:07:28;33.73;;;20.80;;
1082;SDS011;530;51.448;7.238;2023-02-12T16:09:59;31.00;;;20.07;;
1082;SDS011;530;51.448;7.238;2023-02-12T16:12:27;34.23;;;20.30;;
1082;SDS011;530;51.448;7.238;2023-02-12T16:14:55;29.30;;;20.50;;
1082;SDS011;530;51.448;7.238;2023-02-12T16:22:30;31.83;;;22.00;;
1082;SDS011;530;51.448;7.238;2023-02-12T16:25:26;31.03;;;20.47;;
1082;SDS011;530;51.448;7.238;2023-02-12T16:28:00;31.53;;;19.73;;
1082;SDS011;530;51.448;7.238;2023-02-12T16:30:32;34.90;;;22.80;;
1082;SDS011;530;51.448;7.238;2023-02-12T16:33:03;30.50;;;20.27;;
1082;SDS011;530;51.448;7.238;2023-02-12T16:35:33;30.47;;;19.80;;
1082;SDS011;530;51.448;7.238;2023-02-12T16:43:37;37.30;;;22.90;;
1082;SDS011;530;51.448;7.238;2023-02-12T16:46:03;33.10;;;22.40;;
1082;SDS011;530;51.448;7.238;2023-02-12T16:48:29;36.00;;;23.60;;
1082;SDS011;530;51.448;7.238;2023-02-12T16:51:02;35.87;;;23.00;;
1082;SDS011;530;51.448;7.238;2023-02-12T16:55:56;36.67;;;23.60;;
1082;SDS011;530;51.448;7.238;2023-02-12T16:58:22;32.07;;;22.87;;
1082;SDS011;530;51.448;7.238;2023-02-12T17:00:50;31.60;;;21.80;;
1082;SDS011;530;51.448;7.238;2023-02-12T17:03:17;39.23;;;24.30;;
1082;SDS011;530;51.448;7.238;2023-02-12T17:05:43;39.70;;;24.03;;
1082;SDS011;530;51.448;7.238;2023-02-12T17:08:17;34.07;;;23.80;;
1082;SDS011;530;51.448;7.238;2023-02-12T17:10:45;34.70;;;24.20;;
1082;SDS011;530;51.448;7.238;2023-02-12T17:13:12;36.20;;;23.90;;
1082;SDS011;530;51.448;7.238;2023-02-12T17:15:54;37.97;;;24.60;;
1082;SDS011;530;51.448;7.238;2023-02-12T17:18:22;33.17;;;24.33;;
1082;SDS011;530;51.448;7.238;2023-02-12T17:20:53;39.57;;;24.50;;
1082;SDS011;530;51.448;7.238;2023-02-12T17:23:20;31.83;;;22.50;;
1082;SDS011;530;51.448;7.238;2023-02-12T17:25:46;31.53;;;23.17;;
1082;SDS011;530;51.448;7.238;2023-02-12T17:28:12;33.67;;;22.67;;
1082;SDS011;530;51.448;7.238;2023-02-12T17:30:38;36.40;;;25.03;;
1082;SDS011;530;51.448;7.238;2023-02-12T17:33:04;35.83;;;24.00;;
1082;SDS011;530;51.448;7.238;2023-02-12T17:35:30;39.57;;;25.87;;
1082;SDS011;530;51.448;7.238;2023-02-12T17:37:55;36.23;;;24.27;;
1082;SDS011;530;51.448;7.238;2023-02-12T17:40:21;33.53;;;23.83;;
1082;SDS011;530;51.448;7.238;2023-02-12T17:42:47;37.40;;;25.30;;
1082;SDS011;530;51.448;7.238;2023-02-12T17:45:12;35.83;;;25.30;;
1082;SDS011;530;51.448;7.238;2023-02-12T17:47:38;36.03;;;24.27;;
1082;SDS011;530;51.448;7.238;2023-02-12T17:50:06;36.10;;;25.47;;
1082;SDS011;530;51.448;7.238;2023-02-12T17:52:37;37.00;;;24.63;;
1082;SDS011;530;51.448;7.238;2023-02-12T17:55:03;37.83;;;25.73;;
1082;SDS011;530;51.448;7.238;2023-02-12T17:57:29;37.40;;;26.20;;
1082;SDS011;530;51.448;7.238;2023-02-12T17:59:56;41.47;;;26.80;;
1082;SDS011;530;51.448;7.238;2023-02-12T18:02:21;39.10;;;24.60;;
1082;SDS011;530;51.448;7.238;2023-02-12T18:04:47;37.53;;;25.13;;
1082;SDS011;530;51.448;7.238;2023-02-12T18:07:13;37.33;;;25.90;;
1082;SDS011;530;51.448;7.238;2023-02-12T18:09:38;36.40;;;24.70;;
1082;SDS011;530;51.448;7.238;2023-02-12T18:12:04;39.07;;;25.37;;
1082;SDS011;530;51.448;7.238;2023-02-12T18:14:31;39.10;;;26.50;;
1082;SDS011;530;51.448;7.238;2023-02-12T18:16:57;39.07;;;25.17;;
1082;SDS011;530;51.448;7.238;2023-02-12T18:19:26;41.43;;;26.70;;
1082;SDS011;530;51.448;7.238;2023-02-12T18:21:52;38.23;;;25.30;;
1082;SDS011;530;51.448;7.238;2023-02-12T18:24:19;36.57;;;25.50;;
1082;SDS011;530;51.448;7.238;2023-02-12T18:26:44;37.27;;;25.63;;
1082;SDS011;530;51.448;7.238;2023-02-12T18:29:10;39.43;;;25.20;;
1082;SDS011;530;51.448;7.238;2023-02-12T18:31:36;40.33;;;26.10;;
1082;SDS011;530;51.448;7.238;2023-02-12T18:34:05;37.00;;;25.33;;
1082;SDS011;530;51.448;7.238;2023-02-12T18:36:31;39.00;;;25.47;;
1082;SDS011;530;51.448;7.238;2023-02-12T18:38:57;38.50;;;25.20;;
1082;SDS011;530;51.448;7.238;2023-02-12T18:41:29;37.87;;;26.17;;
1082;SDS011;530;51.448;7.238;2023-02-12T18:43:57;34.40;;;24.83;;
1082;SDS011;530;51.448;7.238;2023-02-12T18:46:24;35.40;;;24.10;;
1082;SDS011;530;51.448;7.238;2023-02-12T18:48:51;38.77;;;27.60;;
1082;SDS011;530;51.448;7.238;2023-02-12T18:51:19;35.87;;;24.90;;
1082;SDS011;530;51.448;7.238;2023-02-12T18:53:47;33.27;;;23.70;;